Terminal Aerodrome Forecast
Issued by NWS

Home | Current Version | Previous Version | Graphics & Text | Print | Product List | Glossary On
Versions: 1 2 3 4 5 6 7 8 9 10 11 12 13 14 15 16 17 18 19 20
295
FTUS43 KMPX 082337
TAFAXN
TAF
KAXN 082337Z 0900/0924 31016G24KT P6SM OVC025
     FM090900 34013G20KT P6SM OVC030
     FM091500 33011KT P6SM BKN035 OVC050
     FM091700 31010KT P6SM SCT060
     FM092000 28009KT P6SM SCT150
     FM092300 24008KT P6SM BKN140=

USA.gov is the U.S. government's official web portal to all federal, state and local government web resources and services.